sensor_id;sensor_type;location;lat;lon;timestamp;P1;durP1;ratioP1;P2;durP2;ratioP2
8297;SDS011;4187;42.778;23.242;2023-05-01T00:01:48;9.13;;;8.07;;
8297;SDS011;4187;42.778;23.242;2023-05-01T00:04:16;9.73;;;8.43;;
8297;SDS011;4187;42.778;23.242;2023-05-01T00:06:46;11.07;;;8.40;;
8297;SDS011;4187;42.778;23.242;2023-05-01T00:09:14;11.63;;;8.00;;
8297;SDS011;4187;42.778;23.242;2023-05-01T00:11:42;8.95;;;8.00;;
8297;SDS011;4187;42.778;23.242;2023-05-01T00:14:10;8.85;;;7.93;;
8297;SDS011;4187;42.778;23.242;2023-05-01T00:16:38;10.13;;;8.20;;
8297;SDS011;4187;42.778;23.242;2023-05-01T00:19:08;9.32;;;8.27;;
8297;SDS011;4187;42.778;23.242;2023-05-01T00:21:36;8.52;;;7.60;;
8297;SDS011;4187;42.778;23.242;2023-05-01T00:24:04;8.57;;;7.57;;
8297;SDS011;4187;42.778;23.242;2023-05-01T00:26:32;11.33;;;8.17;;
8297;SDS011;4187;42.778;23.242;2023-05-01T00:28:59;8.70;;;7.78;;
8297;SDS011;4187;42.778;23.242;2023-05-01T00:31:27;11.20;;;8.17;;
8297;SDS011;4187;42.778;23.242;2023-05-01T00:33:55;9.15;;;7.90;;
8297;SDS011;4187;42.778;23.242;2023-05-01T00:36:24;9.38;;;7.85;;
8297;SDS011;4187;42.778;23.242;2023-05-01T00:38:51;10.50;;;8.77;;
8297;SDS011;4187;42.778;23.242;2023-05-01T00:41:18;9.57;;;8.67;;
8297;SDS011;4187;42.778;23.242;2023-05-01T00:43:46;8.67;;;7.77;;
8297;SDS011;4187;42.778;23.242;2023-05-01T00:46:14;10.60;;;7.73;;
8297;SDS011;4187;42.778;23.242;2023-05-01T00:48:42;6.60;;;6.00;;
8297;SDS011;4187;42.778;23.242;2023-05-01T00:51:10;7.30;;;6.60;;
8297;SDS011;4187;42.778;23.242;2023-05-01T00:53:41;10.10;;;7.65;;
8297;SDS011;4187;42.778;23.242;2023-05-01T00:56:10;8.65;;;7.32;;
8297;SDS011;4187;42.778;23.242;2023-05-01T00:58:38;8.90;;;7.22;;
8297;SDS011;4187;42.778;23.242;2023-05-01T01:01:06;10.83;;;7.40;;
8297;SDS011;4187;42.778;23.242;2023-05-01T01:03:34;9.23;;;8.33;;
8297;SDS011;4187;42.778;23.242;2023-05-01T01:06:03;9.60;;;8.10;;
8297;SDS011;4187;42.778;23.242;2023-05-01T01:08:39;11.83;;;7.73;;
8297;SDS011;4187;42.778;23.242;2023-05-01T01:11:22;8.40;;;7.60;;
8297;SDS011;4187;42.778;23.242;2023-05-01T01:13:57;8.05;;;7.25;;
8297;SDS011;4187;42.778;23.242;2023-05-01T01:16:31;8.48;;;7.60;;
8297;SDS011;4187;42.778;23.242;2023-05-01T01:19:12;9.10;;;8.05;;
8297;SDS011;4187;42.778;23.242;2023-05-01T01:22:04;8.87;;;7.97;;
8297;SDS011;4187;42.778;23.242;2023-05-01T01:24:54;10.13;;;8.27;;
8297;SDS011;4187;42.778;23.242;2023-05-01T01:27:39;8.53;;;7.73;;
8297;SDS011;4187;42.778;23.242;2023-05-01T01:33:45;13.80;;;9.33;;
8297;SDS011;4187;42.778;23.242;2023-05-01T01:36:22;8.70;;;7.80;;
8297;SDS011;4187;42.778;23.242;2023-05-01T01:39:07;8.43;;;7.63;;
8297;SDS011;4187;42.778;23.242;2023-05-01T01:41:40;9.63;;;8.00;;
8297;SDS011;4187;42.778;23.242;2023-05-01T01:44:15;11.47;;;9.07;;
8297;SDS011;4187;42.778;23.242;2023-05-01T01:46:47;11.37;;;10.17;;
8297;SDS011;4187;42.778;23.242;2023-05-01T01:49:20;8.07;;;7.27;;
8297;SDS011;4187;42.778;23.242;2023-05-01T01:51:53;7.97;;;6.27;;
8297;SDS011;4187;42.778;23.242;2023-05-01T01:54:23;6.90;;;5.77;;
8297;SDS011;4187;42.778;23.242;2023-05-01T01:56:55;8.30;;;6.47;;
8297;SDS011;4187;42.778;23.242;2023-05-01T01:59:27;8.50;;;7.70;;
8297;SDS011;4187;42.778;23.242;2023-05-01T02:01:59;8.13;;;7.33;;
8297;SDS011;4187;42.778;23.242;2023-05-01T02:04:31;6.00;;;5.50;;
8297;SDS011;4187;42.778;23.242;2023-05-01T02:06:59;6.73;;;6.07;;
8297;SDS011;4187;42.778;23.242;2023-05-01T02:09:28;9.77;;;7.20;;
8297;SDS011;4187;42.778;23.242;2023-05-01T02:11:56;7.43;;;6.73;;
8297;SDS011;4187;42.778;23.242;2023-05-01T02:14:26;6.77;;;6.00;;
8297;SDS011;4187;42.778;23.242;2023-05-01T02:16:54;8.60;;;6.50;;
8297;SDS011;4187;42.778;23.242;2023-05-01T02:19:23;7.90;;;6.43;;
8297;SDS011;4187;42.778;23.242;2023-05-01T02:21:54;6.77;;;6.07;;
8297;SDS011;4187;42.778;23.242;2023-05-01T02:24:24;7.13;;;6.43;;
8297;SDS011;4187;42.778;23.242;2023-05-01T02:26:55;7.10;;;6.40;;
8297;SDS011;4187;42.778;23.242;2023-05-01T02:29:26;6.90;;;6.13;;
8297;SDS011;4187;42.778;23.242;2023-05-01T02:31:54;6.70;;;6.10;;
8297;SDS011;4187;42.778;23.242;2023-05-01T02:34:21;7.77;;;6.33;;
8297;SDS011;4187;42.778;23.242;2023-05-01T02:36:48;7.70;;;6.87;;
8297;SDS011;4187;42.778;23.242;2023-05-01T02:39:16;7.30;;;6.47;;
8297;SDS011;4187;42.778;23.242;2023-05-01T02:41:44;8.00;;;6.20;;
8297;SDS011;4187;42.778;23.242;2023-05-01T02:44:14;6.80;;;6.17;;
8297;SDS011;4187;42.778;23.242;2023-05-01T02:46:43;7.33;;;6.63;;
8297;SDS011;4187;42.778;23.242;2023-05-01T02:49:14;6.73;;;6.07;;
8297;SDS011;4187;42.778;23.242;2023-05-01T02:51:44;7.00;;;6.30;;
8297;SDS011;4187;42.778;23.242;2023-05-01T02:54:13;7.13;;;6.43;;
8297;SDS011;4187;42.778;23.242;2023-05-01T02:56:43;7.57;;;6.70;;
8297;SDS011;4187;42.778;23.242;2023-05-01T02:59:11;7.77;;;6.97;;
8297;SDS011;4187;42.778;23.242;2023-05-01T03:01:40;9.60;;;7.80;;
8297;SDS011;4187;42.778;23.242;2023-05-01T03:04:08;7.77;;;7.07;;
8297;SDS011;4187;42.778;23.242;2023-05-01T03:06:36;7.47;;;6.77;;
8297;SDS011;4187;42.778;23.242;2023-05-01T03:09:04;7.80;;;7.10;;
8297;SDS011;4187;42.778;23.242;2023-05-01T03:11:33;7.07;;;6.37;;
8297;SDS011;4187;42.778;23.242;2023-05-01T03:14:03;7.10;;;6.50;;
8297;SDS011;4187;42.778;23.242;2023-05-01T03:16:33;8.07;;;7.30;;
8297;SDS011;4187;42.778;23.242;2023-05-01T03:19:01;8.13;;;7.33;;
8297;SDS011;4187;42.778;23.242;2023-05-01T03:21:30;8.17;;;7.37;;
8297;SDS011;4187;42.778;23.242;2023-05-01T03:23:59;7.20;;;6.43;;
8297;SDS011;4187;42.778;23.242;2023-05-01T03:26:26;7.60;;;6.90;;
8297;SDS011;4187;42.778;23.242;2023-05-01T03:28:54;8.37;;;7.67;;
8297;SDS011;4187;42.778;23.242;2023-05-01T03:31:23;9.30;;;8.40;;
8297;SDS011;4187;42.778;23.242;2023-05-01T03:33:51;9.13;;;8.23;;
8297;SDS011;4187;42.778;23.242;2023-05-01T03:36:18;8.43;;;7.63;;
8297;SDS011;4187;42.778;23.242;2023-05-01T03:38:47;8.57;;;7.77;;
8297;SDS011;4187;42.778;23.242;2023-05-01T03:41:14;12.20;;;10.30;;
8297;SDS011;4187;42.778;23.242;2023-05-01T03:43:41;10.60;;;8.00;;
8297;SDS011;4187;42.778;23.242;2023-05-01T03:46:08;10.03;;;9.07;;
8297;SDS011;4187;42.778;23.242;2023-05-01T03:48:36;10.73;;;7.60;;
8297;SDS011;4187;42.778;23.242;2023-05-01T03:51:04;8.67;;;7.70;;
8297;SDS011;4187;42.778;23.242;2023-05-01T03:53:31;9.93;;;8.10;;
8297;SDS011;4187;42.778;23.242;2023-05-01T03:55:57;9.73;;;8.30;;
8297;SDS011;4187;42.778;23.242;2023-05-01T03:58:24;10.40;;;9.40;;
8297;SDS011;4187;42.778;23.242;2023-05-01T04:00:51;10.63;;;7.93;;
8297;SDS011;4187;42.778;23.242;2023-05-01T04:03:21;10.07;;;9.07;;
8297;SDS011;4187;42.778;23.242;2023-05-01T04:05:49;14.47;;;10.77;;
8297;SDS011;4187;42.778;23.242;2023-05-01T04:08:16;12.93;;;11.63;;
8297;SDS011;4187;42.778;23.242;2023-05-01T04:10:43;18.97;;;17.00;;
8297;SDS011;4187;42.778;23.242;2023-05-01T04:13:10;15.17;;;13.67;;
8297;SDS011;4187;42.778;23.242;2023-05-01T04:15:37;12.70;;;11.47;;
8297;SDS011;4187;42.778;23.242;2023-05-01T04:18:04;11.87;;;10.60;;
8297;SDS011;4187;42.778;23.242;2023-05-01T04:20:30;9.57;;;8.57;;
8297;SDS011;4187;42.778;23.242;2023-05-01T04:22:59;8.43;;;7.63;;
8297;SDS011;4187;42.778;23.242;2023-05-01T04:25:26;7.37;;;6.67;;
8297;SDS011;4187;42.778;23.242;2023-05-01T04:27:53;7.20;;;6.60;;
8297;SDS011;4187;42.778;23.242;2023-05-01T04:30:19;7.37;;;6.67;;
8297;SDS011;4187;42.778;23.242;2023-05-01T04:32:46;7.17;;;6.47;;
8297;SDS011;4187;42.778;23.242;2023-05-01T04:35:13;6.80;;;6.20;;
8297;SDS011;4187;42.778;23.242;2023-05-01T04:37:40;7.77;;;7.07;;
8297;SDS011;4187;42.778;23.242;2023-05-01T04:40:09;8.23;;;7.43;;
8297;SDS011;4187;42.778;23.242;2023-05-01T04:42:37;8.27;;;7.47;;
8297;SDS011;4187;42.778;23.242;2023-05-01T04:45:04;8.50;;;7.70;;
8297;SDS011;4187;42.778;23.242;2023-05-01T04:47:31;8.13;;;7.33;;
8297;SDS011;4187;42.778;23.242;2023-05-01T04:49:58;8.73;;;7.93;;
8297;SDS011;4187;42.778;23.242;2023-05-01T04:52:25;9.97;;;8.70;;
8297;SDS011;4187;42.778;23.242;2023-05-01T04:54:52;10.27;;;8.40;;
8297;SDS011;4187;42.778;23.242;2023-05-01T04:57:20;8.13;;;7.33;;
8297;SDS011;4187;42.778;23.242;2023-05-01T04:59:47;9.30;;;8.40;;
8297;SDS011;4187;42.778;23.242;2023-05-01T05:02:13;12.83;;;11.53;;
8297;SDS011;4187;42.778;23.242;2023-05-01T05:04:40;11.07;;;8.57;;
8297;SDS011;4187;42.778;23.242;2023-05-01T05:07:07;10.65;;;9.57;;
8297;SDS011;4187;42.778;23.242;2023-05-01T05:09:34;10.35;;;9.35;;
8297;SDS011;4187;42.778;23.242;2023-05-01T05:12:01;9.25;;;8.35;;
8297;SDS011;4187;42.778;23.242;2023-05-01T05:14:30;9.35;;;8.50;;
8297;SDS011;4187;42.778;23.242;2023-05-01T05:16:57;8.80;;;8.00;;
8297;SDS011;4187;42.778;23.242;2023-05-01T05:19:24;9.73;;;8.43;;
8297;SDS011;4187;42.778;23.242;2023-05-01T05:21:51;12.55;;;10.15;;
8297;SDS011;4187;42.778;23.242;2023-05-01T05:24:19;11.30;;;10.30;;
8297;SDS011;4187;42.778;23.242;2023-05-01T05:26:45;10.98;;;7.93;;
8297;SDS011;4187;42.778;23.242;2023-05-01T05:29:13;12.02;;;10.88;;
8297;SDS011;4187;42.778;23.242;2023-05-01T05:31:41;5.60;;;5.10;;
8297;SDS011;4187;42.778;23.242;2023-05-01T05:34:08;6.05;;;5.00;;
8297;SDS011;4187;42.778;23.242;2023-05-01T05:36:35;7.53;;;5.35;;
8297;SDS011;4187;42.778;23.242;2023-05-01T05:39:02;5.80;;;5.30;;
8297;SDS011;4187;42.778;23.242;2023-05-01T05:41:29;6.60;;;5.65;;
8297;SDS011;4187;42.778;23.242;2023-05-01T05:43:55;7.07;;;6.38;;
8297;SDS011;4187;42.778;23.242;2023-05-01T05:46:22;7.72;;;7.03;;
8297;SDS011;4187;42.778;23.242;2023-05-01T05:48:50;12.15;;;7.88;;
8297;SDS011;4187;42.778;23.242;2023-05-01T05:51:17;9.10;;;7.35;;
8297;SDS011;4187;42.778;23.242;2023-05-01T05:53:44;9.00;;;8.10;;
8297;SDS011;4187;42.778;23.242;2023-05-01T05:56:11;8.30;;;7.50;;
8297;SDS011;4187;42.778;23.242;2023-05-01T05:58:38;8.05;;;7.30;;
8297;SDS011;4187;42.778;23.242;2023-05-01T06:01:05;13.45;;;8.73;;
8297;SDS011;4187;42.778;23.242;2023-05-01T06:03:33;8.85;;;8.05;;
8297;SDS011;4187;42.778;23.242;2023-05-01T06:06:01;11.20;;;7.70;;
8297;SDS011;4187;42.778;23.242;2023-05-01T06:08:28;12.20;;;8.18;;
8297;SDS011;4187;42.778;23.242;2023-05-01T06:10:55;9.25;;;8.30;;
8297;SDS011;4187;42.778;23.242;2023-05-01T06:13:23;8.63;;;7.82;;
8297;SDS011;4187;42.778;23.242;2023-05-01T06:15:49;8.20;;;7.40;;
8297;SDS011;4187;42.778;23.242;2023-05-01T06:18:16;8.45;;;7.55;;
8297;SDS011;4187;42.778;23.242;2023-05-01T06:20:43;10.15;;;8.80;;
8297;SDS011;4187;42.778;23.242;2023-05-01T06:23:12;9.82;;;7.05;;
8297;SDS011;4187;42.778;23.242;2023-05-01T06:25:40;7.65;;;6.93;;
8297;SDS011;4187;42.778;23.242;2023-05-01T06:28:07;7.57;;;6.70;;
8297;SDS011;4187;42.778;23.242;2023-05-01T06:30:33;10.02;;;7.75;;
8297;SDS011;4187;42.778;23.242;2023-05-01T06:33:00;8.10;;;7.32;;
8297;SDS011;4187;42.778;23.242;2023-05-01T06:35:27;9.38;;;7.93;;
8297;SDS011;4187;42.778;23.242;2023-05-01T06:37:54;8.00;;;7.30;;
8297;SDS011;4187;42.778;23.242;2023-05-01T06:40:22;7.25;;;6.57;;
8297;SDS011;4187;42.778;23.242;2023-05-01T06:42:49;7.20;;;6.60;;
8297;SDS011;4187;42.778;23.242;2023-05-01T06:45:16;7.55;;;6.85;;
8297;SDS011;4187;42.778;23.242;2023-05-01T06:47:42;7.75;;;7.05;;
8297;SDS011;4187;42.778;23.242;2023-05-01T06:50:09;7.03;;;6.43;;
8297;SDS011;4187;42.778;23.242;2023-05-01T06:52:36;7.38;;;6.68;;
8297;SDS011;4187;42.778;23.242;2023-05-01T06:55:03;7.13;;;6.60;;
8297;SDS011;4187;42.778;23.242;2023-05-01T06:57:32;7.20;;;6.60;;
8297;SDS011;4187;42.778;23.242;2023-05-01T06:59:59;6.43;;;5.47;;
8297;SDS011;4187;42.778;23.242;2023-05-01T07:02:25;7.38;;;6.70;;
8297;SDS011;4187;42.778;23.242;2023-05-01T07:04:52;7.65;;;6.95;;
8297;SDS011;4187;42.778;23.242;2023-05-01T07:07:19;6.97;;;6.40;;
8297;SDS011;4187;42.778;23.242;2023-05-01T07:09:46;6.90;;;6.30;;
8297;SDS011;4187;42.778;23.242;2023-05-01T07:12:15;7.53;;;6.78;;
8297;SDS011;4187;42.778;23.242;2023-05-01T07:14:43;7.90;;;6.10;;
8297;SDS011;4187;42.778;23.242;2023-05-01T07:17:10;5.50;;;5.00;;
8297;SDS011;4187;42.778;23.242;2023-05-01T07:19:37;6.95;;;6.25;;
8297;SDS011;4187;42.778;23.242;2023-05-01T07:22:04;6.45;;;5.85;;
8297;SDS011;4187;42.778;23.242;2023-05-01T07:24:30;7.10;;;5.95;;
8297;SDS011;4187;42.778;23.242;2023-05-01T07:26:57;7.38;;;5.80;;
8297;SDS011;4187;42.778;23.242;2023-05-01T07:29:24;6.25;;;5.72;;
8297;SDS011;4187;42.778;23.242;2023-05-01T07:31:53;6.60;;;6.00;;
8297;SDS011;4187;42.778;23.242;2023-05-01T07:34:27;6.97;;;6.35;;
8297;SDS011;4187;42.778;23.242;2023-05-01T07:36:54;6.13;;;5.63;;
8297;SDS011;4187;42.778;23.242;2023-05-01T07:39:21;6.75;;;5.28;;
8297;SDS011;4187;42.778;23.242;2023-05-01T07:41:58;6.78;;;6.15;;
8297;SDS011;4187;42.778;23.242;2023-05-01T07:44:25;6.90;;;6.28;;
8297;SDS011;4187;42.778;23.242;2023-05-01T07:46:53;7.32;;;6.60;;
8297;SDS011;4187;42.778;23.242;2023-05-01T07:49:19;6.53;;;5.80;;
8297;SDS011;4187;42.778;23.242;2023-05-01T07:51:46;8.18;;;6.60;;
8297;SDS011;4187;42.778;23.242;2023-05-01T07:54:13;8.80;;;7.30;;
8297;SDS011;4187;42.778;23.242;2023-05-01T07:56:42;6.10;;;5.57;;
8297;SDS011;4187;42.778;23.242;2023-05-01T07:59:08;5.05;;;4.55;;
8297;SDS011;4187;42.778;23.242;2023-05-01T08:01:35;5.68;;;4.90;;
8297;SDS011;4187;42.778;23.242;2023-05-01T08:04:04;6.07;;;5.47;;
8297;SDS011;4187;42.778;23.242;2023-05-01T08:06:31;8.50;;;6.15;;
8297;SDS011;4187;42.778;23.242;2023-05-01T08:08:58;5.10;;;4.70;;
8297;SDS011;4187;42.778;23.242;2023-05-01T08:11:24;4.53;;;3.58;;
8297;SDS011;4187;42.778;23.242;2023-05-01T08:13:53;5.18;;;4.65;;
8297;SDS011;4187;42.778;23.242;2023-05-01T08:16:20;8.50;;;4.63;;
8297;SDS011;4187;42.778;23.242;2023-05-01T08:18:47;4.15;;;3.75;;
8297;SDS011;4187;42.778;23.242;2023-05-01T08:21:15;4.22;;;3.33;;
8297;SDS011;4187;42.778;23.242;2023-05-01T08:23:42;16.40;;;7.38;;
8297;SDS011;4187;42.778;23.242;2023-05-01T08:26:08;26.15;;;13.93;;
8297;SDS011;4187;42.778;23.242;2023-05-01T08:28:35;46.20;;;22.02;;
8297;SDS011;4187;42.778;23.242;2023-05-01T08:31:02;12.48;;;5.70;;
8297;SDS011;4187;42.778;23.242;2023-05-01T08:33:29;23.65;;;12.32;;
8297;SDS011;4187;42.778;23.242;2023-05-01T08:35:56;35.42;;;18.08;;
8297;SDS011;4187;42.778;23.242;2023-05-01T08:38:24;7.38;;;4.95;;
8297;SDS011;4187;42.778;23.242;2023-05-01T08:40:51;4.15;;;3.83;;
8297;SDS011;4187;42.778;23.242;2023-05-01T08:43:21;3.90;;;3.55;;
8297;SDS011;4187;42.778;23.242;2023-05-01T08:45:48;4.10;;;3.35;;
8297;SDS011;4187;42.778;23.242;2023-05-01T08:48:16;4.28;;;3.47;;
8297;SDS011;4187;42.778;23.242;2023-05-01T08:50:45;2.90;;;2.65;;
8297;SDS011;4187;42.778;23.242;2023-05-01T08:53:13;4.03;;;3.42;;
8297;SDS011;4187;42.778;23.242;2023-05-01T08:55:43;7.20;;;3.58;;
8297;SDS011;4187;42.778;23.242;2023-05-01T08:58:11;5.28;;;3.22;;
8297;SDS011;4187;42.778;23.242;2023-05-01T09:00:40;6.10;;;3.70;;
8297;SDS011;4187;42.778;23.242;2023-05-01T09:03:08;4.72;;;3.47;;
8297;SDS011;4187;42.778;23.242;2023-05-01T09:05:37;5.95;;;2.80;;
8297;SDS011;4187;42.778;23.242;2023-05-01T09:08:04;3.20;;;2.90;;
8297;SDS011;4187;42.778;23.242;2023-05-01T09:10:31;3.42;;;2.90;;
8297;SDS011;4187;42.778;23.242;2023-05-01T09:13:00;6.75;;;3.97;;
8297;SDS011;4187;42.778;23.242;2023-05-01T09:15:31;6.28;;;3.35;;
8297;SDS011;4187;42.778;23.242;2023-05-01T09:17:59;3.90;;;2.53;;
8297;SDS011;4187;42.778;23.242;2023-05-01T09:20:26;4.68;;;3.00;;
8297;SDS011;4187;42.778;23.242;2023-05-01T09:22:54;3.05;;;2.65;;
8297;SDS011;4187;42.778;23.242;2023-05-01T09:25:22;7.75;;;2.60;;
8297;SDS011;4187;42.778;23.242;2023-05-01T09:27:49;3.28;;;2.53;;
8297;SDS011;4187;42.778;23.242;2023-05-01T09:30:30;2.65;;;2.30;;
8297;SDS011;4187;42.778;23.242;2023-05-01T09:33:08;6.40;;;2.75;;
8297;SDS011;4187;42.778;23.242;2023-05-01T09:35:49;3.75;;;3.20;;
8297;SDS011;4187;42.778;23.242;2023-05-01T09:38:17;7.43;;;2.95;;
8297;SDS011;4187;42.778;23.242;2023-05-01T09:40:44;4.70;;;2.88;;
8297;SDS011;4187;42.778;23.242;2023-05-01T09:43:12;3.20;;;2.90;;
8297;SDS011;4187;42.778;23.242;2023-05-01T09:45:40;3.22;;;2.63;;
8297;SDS011;4187;42.778;23.242;2023-05-01T09:48:07;2.55;;;1.88;;
8297;SDS011;4187;42.778;23.242;2023-05-01T09:50:36;3.35;;;2.00;;
8297;SDS011;4187;42.778;23.242;2023-05-01T09:53:06;2.45;;;1.92;;
8297;SDS011;4187;42.778;23.242;2023-05-01T09:55:35;4.78;;;2.53;;
8297;SDS011;4187;42.778;23.242;2023-05-01T09:58:02;2.88;;;1.98;;
8297;SDS011;4187;42.778;23.242;2023-05-01T10:00:29;2.33;;;2.03;;
8297;SDS011;4187;42.778;23.242;2023-05-01T10:02:57;3.72;;;2.03;;
8297;SDS011;4187;42.778;23.242;2023-05-01T10:05:41;3.72;;;2.30;;
8297;SDS011;4187;42.778;23.242;2023-05-01T10:08:09;8.90;;;2.70;;
8297;SDS011;4187;42.778;23.242;2023-05-01T10:10:39;3.08;;;1.77;;
8297;SDS011;4187;42.778;23.242;2023-05-01T10:13:14;2.95;;;2.30;;
8297;SDS011;4187;42.778;23.242;2023-05-01T10:15:43;2.40;;;2.20;;
8297;SDS011;4187;42.778;23.242;2023-05-01T10:18:12;2.20;;;2.00;;
8297;SDS011;4187;42.778;23.242;2023-05-01T10:20:39;2.50;;;2.30;;
8297;SDS011;4187;42.778;23.242;2023-05-01T10:23:06;5.60;;;2.30;;
8297;SDS011;4187;42.778;23.242;2023-05-01T10:25:34;3.20;;;2.00;;
8297;SDS011;4187;42.778;23.242;2023-05-01T10:28:02;3.05;;;2.83;;
8297;SDS011;4187;42.778;23.242;2023-05-01T10:30:29;4.35;;;1.70;;
8297;SDS011;4187;42.778;23.242;2023-05-01T10:32:57;4.20;;;3.15;;
8297;SDS011;4187;42.778;23.242;2023-05-01T10:35:26;2.35;;;1.38;;
8297;SDS011;4187;42.778;23.242;2023-05-01T10:37:58;3.97;;;2.65;;
8297;SDS011;4187;42.778;23.242;2023-05-01T10:40:44;2.35;;;1.48;;
8297;SDS011;4187;42.778;23.242;2023-05-01T10:43:14;1.85;;;1.75;;
8297;SDS011;4187;42.778;23.242;2023-05-01T10:45:45;2.30;;;1.80;;
8297;SDS011;4187;42.778;23.242;2023-05-01T10:51:19;1.50;;;1.38;;
8297;SDS011;4187;42.778;23.242;2023-05-01T10:53:47;2.65;;;2.40;;
8297;SDS011;4187;42.778;23.242;2023-05-01T10:59:08;3.58;;;3.28;;
8297;SDS011;4187;42.778;23.242;2023-05-01T11:01:37;11.60;;;3.35;;
8297;SDS011;4187;42.778;23.242;2023-05-01T11:04:05;2.10;;;1.90;;
8297;SDS011;4187;42.778;23.242;2023-05-01T11:06:35;2.00;;;1.80;;
8297;SDS011;4187;42.778;23.242;2023-05-01T11:12:02;1.77;;;1.60;;
8297;SDS011;4187;42.778;23.242;2023-05-01T11:17:44;5.25;;;2.05;;
8297;SDS011;4187;42.778;23.242;2023-05-01T11:23:19;1.65;;;1.52;;
8297;SDS011;4187;42.778;23.242;2023-05-01T11:25:47;1.85;;;1.60;;
8297;SDS011;4187;42.778;23.242;2023-05-01T11:28:18;7.65;;;2.17;;
8297;SDS011;4187;42.778;23.242;2023-05-01T11:30:46;1.63;;;1.50;;
8297;SDS011;4187;42.778;23.242;2023-05-01T11:33:20;2.80;;;1.50;;
8297;SDS011;4187;42.778;23.242;2023-05-01T11:35:58;2.70;;;1.80;;
8297;SDS011;4187;42.778;23.242;2023-05-01T11:38:28;2.50;;;1.80;;
8297;SDS011;4187;42.778;23.242;2023-05-01T11:40:56;2.97;;;2.20;;
8297;SDS011;4187;42.778;23.242;2023-05-01T11:43:25;3.97;;;2.50;;
8297;SDS011;4187;42.778;23.242;2023-05-01T11:45:52;2.67;;;2.30;;
8297;SDS011;4187;42.778;23.242;2023-05-01T11:48:26;1.70;;;1.45;;
8297;SDS011;4187;42.778;23.242;2023-05-01T11:50:54;3.90;;;2.03;;
8297;SDS011;4187;42.778;23.242;2023-05-01T11:53:21;2.00;;;1.77;;
8297;SDS011;4187;42.778;23.242;2023-05-01T11:55:52;2.15;;;1.60;;
8297;SDS011;4187;42.778;23.242;2023-05-01T11:58:29;2.42;;;1.83;;
8297;SDS011;4187;42.778;23.242;2023-05-01T12:00:58;2.45;;;1.90;;
8297;SDS011;4187;42.778;23.242;2023-05-01T12:03:25;2.00;;;1.80;;
8297;SDS011;4187;42.778;23.242;2023-05-01T12:05:52;3.13;;;1.80;;
8297;SDS011;4187;42.778;23.242;2023-05-01T13:15:28;3.35;;;1.38;;
8297;SDS011;4187;42.778;23.242;2023-05-01T13:18:02;2.53;;;1.33;;
8297;SDS011;4187;42.778;23.242;2023-05-01T13:20:30;2.75;;;1.40;;
8297;SDS011;4187;42.778;23.242;2023-05-01T13:22:57;1.73;;;1.60;;
8297;SDS011;4187;42.778;23.242;2023-05-01T13:25:24;2.15;;;1.35;;
8297;SDS011;4187;42.778;23.242;2023-05-01T13:27:51;1.67;;;1.50;;
8297;SDS011;4187;42.778;23.242;2023-05-01T13:30:19;3.38;;;1.98;;
8297;SDS011;4187;42.778;23.242;2023-05-01T13:32:48;1.83;;;1.23;;
8297;SDS011;4187;42.778;23.242;2023-05-01T13:35:21;1.23;;;1.13;;
8297;SDS011;4187;42.778;23.242;2023-05-01T13:37:49;1.58;;;1.30;;
8297;SDS011;4187;42.778;23.242;2023-05-01T13:40:17;1.70;;;1.52;;
8297;SDS011;4187;42.778;23.242;2023-05-01T13:42:45;1.55;;;1.30;;
8297;SDS011;4187;42.778;23.242;2023-05-01T13:45:17;2.13;;;1.80;;
8297;SDS011;4187;42.778;23.242;2023-05-01T13:47:45;1.75;;;1.45;;
8297;SDS011;4187;42.778;23.242;2023-05-01T13:50:15;2.95;;;1.63;;
8297;SDS011;4187;42.778;23.242;2023-05-01T13:52:42;1.75;;;1.38;;
8297;SDS011;4187;42.778;23.242;2023-05-01T13:55:10;1.88;;;1.50;;
8297;SDS011;4187;42.778;23.242;2023-05-01T13:57:37;1.38;;;1.27;;
8297;SDS011;4187;42.778;23.242;2023-05-01T14:00:07;1.65;;;1.10;;
8297;SDS011;4187;42.778;23.242;2023-05-01T14:02:36;2.38;;;1.70;;
8297;SDS011;4187;42.778;23.242;2023-05-01T14:05:09;3.63;;;2.13;;
8297;SDS011;4187;42.778;23.242;2023-05-01T14:07:43;2.65;;;2.08;;
8297;SDS011;4187;42.778;23.242;2023-05-01T14:10:15;1.58;;;1.48;;
8297;SDS011;4187;42.778;23.242;2023-05-01T14:12:41;2.08;;;1.85;;
8297;SDS011;4187;42.778;23.242;2023-05-01T14:15:10;2.92;;;2.20;;
8297;SDS011;4187;42.778;23.242;2023-05-01T14:17:38;2.30;;;1.65;;
8297;SDS011;4187;42.778;23.242;2023-05-01T14:20:05;3.05;;;1.30;;
8297;SDS011;4187;42.778;23.242;2023-05-01T14:22:34;2.17;;;1.90;;
8297;SDS011;4187;42.778;23.242;2023-05-01T14:25:15;2.13;;;1.70;;
8297;SDS011;4187;42.778;23.242;2023-05-01T14:27:48;2.63;;;1.33;;
8297;SDS011;4187;42.778;23.242;2023-05-01T14:30:16;1.45;;;1.30;;
8297;SDS011;4187;42.778;23.242;2023-05-01T14:32:51;2.72;;;1.88;;
8297;SDS011;4187;42.778;23.242;2023-05-01T14:35:19;1.85;;;1.67;;
8297;SDS011;4187;42.778;23.242;2023-05-01T14:37:48;1.40;;;1.30;;
8297;SDS011;4187;42.778;23.242;2023-05-01T14:40:16;3.80;;;1.80;;
8297;SDS011;4187;42.778;23.242;2023-05-01T14:42:43;2.22;;;1.50;;
8297;SDS011;4187;42.778;23.242;2023-05-01T14:45:11;2.75;;;1.90;;
8297;SDS011;4187;42.778;23.242;2023-05-01T14:47:39;3.53;;;1.90;;
8297;SDS011;4187;42.778;23.242;2023-05-01T14:50:06;4.82;;;1.95;;
8297;SDS011;4187;42.778;23.242;2023-05-01T14:52:36;2.08;;;1.52;;
8297;SDS011;4187;42.778;23.242;2023-05-01T14:55:06;1.20;;;1.10;;
8297;SDS011;4187;42.778;23.242;2023-05-01T14:57:33;3.03;;;1.60;;
8297;SDS011;4187;42.778;23.242;2023-05-01T15:00:00;2.50;;;1.40;;
8297;SDS011;4187;42.778;23.242;2023-05-01T15:02:27;1.98;;;1.40;;
8297;SDS011;4187;42.778;23.242;2023-05-01T15:04:54;1.63;;;1.40;;
8297;SDS011;4187;42.778;23.242;2023-05-01T15:07:21;2.22;;;1.40;;
8297;SDS011;4187;42.778;23.242;2023-05-01T15:09:48;1.48;;;1.30;;
8297;SDS011;4187;42.778;23.242;2023-05-01T15:12:16;1.40;;;1.20;;
8297;SDS011;4187;42.778;23.242;2023-05-01T15:14:44;2.80;;;1.80;;
8297;SDS011;4187;42.778;23.242;2023-05-01T15:17:11;2.08;;;1.50;;
8297;SDS011;4187;42.778;23.242;2023-05-01T15:19:38;2.80;;;1.40;;
8297;SDS011;4187;42.778;23.242;2023-05-01T15:22:05;2.40;;;1.40;;
8297;SDS011;4187;42.778;23.242;2023-05-01T15:24:32;4.45;;;3.38;;
8297;SDS011;4187;42.778;23.242;2023-05-01T15:26:58;3.65;;;2.80;;
8297;SDS011;4187;42.778;23.242;2023-05-01T15:29:27;2.63;;;2.42;;
8297;SDS011;4187;42.778;23.242;2023-05-01T15:31:53;2.72;;;1.88;;
8297;SDS011;4187;42.778;23.242;2023-05-01T15:34:20;2.38;;;1.85;;
8297;SDS011;4187;42.778;23.242;2023-05-01T15:36:48;2.60;;;1.80;;
8297;SDS011;4187;42.778;23.242;2023-05-01T15:39:15;3.45;;;2.10;;
8297;SDS011;4187;42.778;23.242;2023-05-01T15:41:44;3.42;;;2.75;;
8297;SDS011;4187;42.778;23.242;2023-05-01T15:44:11;3.58;;;3.20;;
8297;SDS011;4187;42.778;23.242;2023-05-01T15:46:39;3.55;;;3.25;;
8297;SDS011;4187;42.778;23.242;2023-05-01T15:49:06;5.95;;;2.85;;
8297;SDS011;4187;42.778;23.242;2023-05-01T15:51:35;4.35;;;2.65;;
8297;SDS011;4187;42.778;23.242;2023-05-01T15:54:02;2.78;;;2.40;;
8297;SDS011;4187;42.778;23.242;2023-05-01T15:56:32;5.15;;;2.97;;
8297;SDS011;4187;42.778;23.242;2023-05-01T15:59:01;3.10;;;2.25;;
8297;SDS011;4187;42.778;23.242;2023-05-01T16:01:29;4.88;;;3.47;;
8297;SDS011;4187;42.778;23.242;2023-05-01T16:03:58;4.93;;;2.90;;
8297;SDS011;4187;42.778;23.242;2023-05-01T16:06:26;9.02;;;4.03;;
8297;SDS011;4187;42.778;23.242;2023-05-01T16:08:53;2.75;;;2.55;;
8297;SDS011;4187;42.778;23.242;2023-05-01T16:11:19;2.75;;;2.30;;
8297;SDS011;4187;42.778;23.242;2023-05-01T16:13:46;2.60;;;2.40;;
8297;SDS011;4187;42.778;23.242;2023-05-01T16:16:17;2.83;;;2.47;;
8297;SDS011;4187;42.778;23.242;2023-05-01T16:18:48;2.80;;;2.60;;
8297;SDS011;4187;42.778;23.242;2023-05-01T16:21:19;4.50;;;3.03;;
8297;SDS011;4187;42.778;23.242;2023-05-01T16:23:46;5.43;;;3.25;;
8297;SDS011;4187;42.778;23.242;2023-05-01T16:26:16;4.22;;;3.55;;
8297;SDS011;4187;42.778;23.242;2023-05-01T16:28:45;4.50;;;3.42;;
8297;SDS011;4187;42.778;23.242;2023-05-01T16:31:12;4.80;;;4.40;;
8297;SDS011;4187;42.778;23.242;2023-05-01T16:33:42;5.03;;;4.63;;